TimeEDT,TemperatureF,Dew PointF,Humidity,Sea Level PressureIn,VisibilityMPH,Wind Direction,Wind SpeedMPH,Gust SpeedMPH,PrecipitationIn,Events,Conditions,WindDirDegrees,DateUTC
12:08 AM,75.2,71.6,89,29.99,4.0,SSE,6.9,-,0.20,Rain-Thunderstorm,Rain,160,2012-10-15 04:08:00
12:18 AM,75.2,73.4,94,29.98,5.0,Calm,Calm,-,0.24,Rain-Thunderstorm,Light Rain,0,2012-10-15 04:18:00
12:23 AM,75.2,73.4,94,29.98,6.0,Calm,Calm,-,0.24,Rain,Rain,0,2012-10-15 04:23:00
12:53 AM,75.9,73.9,94,29.97,10.0,SE,3.5,-,0.26,Thunderstorm,Thunderstorm,140,2012-10-15 04:53:00
1:10 AM,75.2,73.4,94,29.96,9.0,ESE,5.8,-,N/A,Thunderstorm,Overcast,120,2012-10-15 05:10:00
1:32 AM,77.0,75.2,94,29.96,6.0,SE,4.6,-,N/A,Thunderstorm,Mostly Cloudy,130,2012-10-15 05:32:00
1:42 AM,77.0,75.2,94,29.96,7.0,East,5.8,-,N/A,,Mostly Cloudy,90,2012-10-15 05:42:00
1:53 AM,78.1,73.9,87,29.95,10.0,East,8.1,-,N/A,,Mostly Cloudy,80,2012-10-15 05:53:00
2:53 AM,79.0,73.0,82,29.94,10.0,East,11.5,-,N/A,,Mostly Cloudy,80,2012-10-15 06:53:00
3:08 AM,78.8,73.4,83,29.94,10.0,East,8.1,-,N/A,,Mostly Cloudy,90,2012-10-15 07:08:00
3:21 AM,78.8,73.4,83,29.93,10.0,East,6.9,-,N/A,,Mostly Cloudy,80,2012-10-15 07:21:00
3:32 AM,78.8,73.4,83,29.93,10.0,East,5.8,-,N/A,,Mostly Cloudy,80,2012-10-15 07:32:00
3:39 AM,78.8,73.4,83,29.93,10.0,East,6.9,-,N/A,,Mostly Cloudy,90,2012-10-15 07:39:00
3:53 AM,79.0,73.0,82,29.91,10.0,East,6.9,-,N/A,,Overcast,90,2012-10-15 07:53:00
4:53 AM,79.0,73.0,82,29.91,10.0,ENE,3.5,-,N/A,,Mostly Cloudy,70,2012-10-15 08:53:00
5:53 AM,78.1,72.0,81,29.90,10.0,East,5.8,-,N/A,,Partly Cloudy,90,2012-10-15 09:53:00
6:53 AM,77.0,71.1,82,29.91,10.0,East,4.6,-,N/A,,Clear,90,2012-10-15 10:53:00
8:53 AM,81.0,72.0,74,29.93,10.0,NE,5.8,-,N/A,,Scattered Clouds,50,2012-10-15 12:53:00
9:53 AM,82.9,72.0,69,29.94,10.0,East,8.1,-,N/A,,Scattered Clouds,80,2012-10-15 13:53:00
10:53 AM,82.9,71.1,67,29.94,10.0,East,8.1,-,N/A,,Clear,90,2012-10-15 14:53:00
11:53 AM,84.0,72.0,67,29.93,10.0,ENE,9.2,-,N/A,,Scattered Clouds,70,2012-10-15 15:53:00
12:53 PM,84.0,71.1,65,29.91,10.0,East,6.9,-,N/A,,Scattered Clouds,80,2012-10-15 16:53:00
1:53 PM,84.9,71.1,63,29.88,10.0,NE,6.9,-,N/A,,Scattered Clouds,40,2012-10-15 17:53:00
2:53 PM,84.0,71.1,65,29.86,10.0,NNE,9.2,-,N/A,,Scattered Clouds,30,2012-10-15 18:53:00
3:53 PM,84.9,73.0,67,29.85,10.0,NNE,9.2,-,N/A,,Partly Cloudy,20,2012-10-15 19:53:00
4:53 PM,84.0,70.0,63,29.84,10.0,NNE,11.5,-,N/A,,Scattered Clouds,30,2012-10-15 20:53:00
5:53 PM,81.0,71.1,72,29.83,10.0,NNE,8.1,-,N/A,,Clear,30,2012-10-15 21:53:00
6:53 PM,79.0,71.1,77,29.82,10.0,NNE,4.6,-,N/A,,Clear,20,2012-10-15 22:53:00
7:53 PM,78.1,72.0,81,29.83,10.0,North,3.5,-,N/A,,Overcast,360,2012-10-15 23:53:00
8:53 PM,77.0,71.1,82,29.84,10.0,Calm,Calm,-,N/A,,Partly Cloudy,0,2012-10-16 00:53:00
9:53 PM,77.0,71.1,82,29.84,10.0,Calm,Calm,-,N/A,,Clear,0,2012-10-16 01:53:00
10:53 PM,73.9,71.1,91,29.86,10.0,Calm,Calm,-,N/A,,Clear,0,2012-10-16 02:53:00
11:53 PM,73.9,71.1,91,29.86,10.0,NW,5.8,-,N/A,,Clear,310,2012-10-16 03:53:00